KMIW/MIW METAR and TAF weather

Enter ICAO airport designator
Station Type Date Time Source
KMIW METAR 2021/05/14 21:53 UTC NOAA

KMIW 142153Z AUTO 17011KT 10SM OVC075 17/04 A3014 RMK AO2 SLP208 T01720044


Station Type Date Time Source
KMIW Decoded METAR 2021/05/14 21:53 UTC NOAA

MARSHALLTOWN MUNICIPAL AIRPORT , IA, United States (KMIW) 42-07N 92-55W 296M
May 14, 2021 - 05:53 PM EDT / 2021.05.14 2153 UTC
Wind: from the S (170 degrees) at 13 MPH (11 KT):0
Visibility: 10 mile(s):0
Sky conditions: overcast
Temperature: 63.0 F (17.2 C)
Dew Point: 39.9 F (4.4 C)
Relative Humidity: 42%
Pressure (altimeter): 30.14 in. Hg (1020 hPa)
ob: KMIW 142153Z AUTO 17011KT 10SM OVC075 17/04 A3014 RMK AO2 SLP208 T01720044
cycle: 22

Station Type Date Time Source
KMIW TAF UTC NOAA

Error!

Example: see airport list